Terminal Aerodrome Forecast
Issued by NWS

Home | Current Version | Previous Version | Text Only | Print | Product List | Glossary On
Versions: 1 2 3 4 5 6 7 8 9 10 11 12 13 14 15 16 17 18 19
000
FTUS43 KLSX 222325
TAFSUS
TAF
KSUS 222325Z 2300/2324 16008KT P6SM OVC060
     FM230700 20005KT P6SM BKN090
     FM231000 23006KT P6SM VCTS BKN030CB
      TEMPO 2311/2314 5SM -TSRA BR OVC015CB
     FM231500 32010KT P6SM VCSH BKN025
     FM232000 35012G18KT P6SM BKN045=

USA.gov is the U.S. government's official web portal to all federal, state and local government web resources and services.